Time;durP1;ratioP1;P1;durP2;ratioP2;P2;SDS_P1;SDS_P2;PMS_P1;PMS_P2;Temp;Humidity;BMP_temperature;BMP_pressure;BME280_temperature;BME280_humidity;BME280_pressure;Samples;Min_cycle;Max_cycle;Signal;HPM_P1;HPM_P2
2022/08/15 00:00:07;;;;;;;;;;;24.70;62.20;;;;;;6325425;27;20689;-41
2022/08/15 00:03:28;;;;;;;;;;;24.50;62.10;;;;;;6304756;27;19919;-42
2022/08/15 00:06:50;;;;;;;;;;;24.70;62.20;;;;;;6285536;27;19927;-42
2022/08/15 00:09:52;;;;;;;;;;;24.70;62.20;;;;;;6323435;27;20875;-43
2022/08/15 00:13:00;;;;;;;;;;;24.70;62.20;;;;;;6322447;27;19933;-41
2022/08/15 00:16:16;;;;;;;;;;;24.60;62.30;;;;;;6323887;27;19926;-43
2022/08/15 00:19:25;;;;;;;;;;;24.50;62.10;;;;;;6325458;27;19919;-42
2022/08/15 00:22:26;;;;;;;;;;;24.70;62.20;;;;;;6306033;27;19983;-43
2022/08/15 00:25:37;;;;;;;;;;;24.70;62.30;;;;;;6325537;27;19929;-42
2022/08/15 00:28:41;;;;;;;;;;;24.50;62.20;;;;;;6304852;27;20586;-40
2022/08/15 00:31:43;;;;;;;;;;;24.50;62.10;;;;;;6310333;27;19954;-42
2022/08/15 00:34:46;;;;;;;;;;;24.50;62.10;;;;;;6328591;27;19995;-41
2022/08/15 00:37:47;;;;;;;;;;;24.60;62.20;;;;;;6332019;27;20042;-42
2022/08/15 00:44:25;;;;;;;;;;;24.70;62.30;;;;;;6296282;27;19923;-41
2022/08/15 00:48:41;;;;;;;;;;;24.80;62.30;;;;;;6302360;27;19927;-41
2022/08/15 00:51:11;;;;;;;;;;;24.60;62.30;;;;;;6314035;27;19920;-43
2022/08/15 00:54:17;;;;;;;;;;;24.70;62.40;;;;;;6316317;27;20048;-43
2022/08/15 00:57:40;;;;;;;;;;;24.60;62.20;;;;;;6319242;27;19927;-39
2022/08/15 01:01:04;;;;;;;;;;;24.50;62.20;;;;;;6308121;27;19930;-41
2022/08/15 01:04:07;;;;;;;;;;;24.50;62.10;;;;;;6329214;27;20033;-42
2022/08/15 01:07:19;;;;;;;;;;;24.40;62.10;;;;;;6330005;27;19970;-41
2022/08/15 01:10:24;;;;;;;;;;;24.60;62.20;;;;;;6314279;27;19932;-43
2022/08/15 01:13:28;;;;;;;;;;;24.50;62.20;;;;;;6325079;27;20332;-41
2022/08/15 01:16:51;;;;;;;;;;;24.80;62.40;;;;;;6306690;27;20260;-42
2022/08/15 01:20:00;;;;;;;;;;;24.60;62.30;;;;;;6319405;27;20683;-42
2022/08/15 01:23:09;;;;;;;;;;;24.50;62.10;;;;;;6304392;27;20165;-42
2022/08/15 01:26:13;;;;;;;;;;;24.50;62.20;;;;;;6322377;27;19930;-42
2022/08/15 01:29:35;;;;;;;;;;;24.50;62.20;;;;;;6308604;27;20717;-42
2022/08/15 01:32:37;;;;;;;;;;;24.70;62.30;;;;;;6322080;27;19935;-43
2022/08/15 01:35:39;;;;;;;;;;;24.50;62.30;;;;;;6319585;27;19923;-42
2022/08/15 01:38:47;;;;;;;;;;;24.50;62.20;;;;;;6319161;27;19977;-41
2022/08/15 01:42:10;;;;;;;;;;;24.90;62.40;;;;;;6293528;27;20117;-42
2022/08/15 01:45:22;;;;;;;;;;;24.50;62.20;;;;;;6321578;27;20296;-39
2022/08/15 01:48:27;;;;;;;;;;;24.60;62.30;;;;;;6300638;27;20418;-42
2022/08/15 01:51:29;;;;;;;;;;;24.40;62.10;;;;;;6322895;27;19923;-41
2022/08/15 01:54:37;;;;;;;;;;;24.70;62.30;;;;;;6318533;27;20169;-42
2022/08/15 01:58:01;;;;;;;;;;;24.50;62.20;;;;;;6309196;27;19989;-41
2022/08/15 02:01:06;;;;;;;;;;;24.30;62.00;;;;;;6321569;27;20236;-42
2022/08/15 02:04:07;;;;;;;;;;;24.50;62.10;;;;;;6302828;27;20197;-42
2022/08/15 02:07:09;;;;;;;;;;;24.50;62.20;;;;;;6325403;27;19953;-40
2022/08/15 02:10:24;;;;;;;;;;;24.40;62.10;;;;;;6323860;27;19927;-40
2022/08/15 02:13:29;;;;;;;;;;;24.40;62.10;;;;;;6327001;27;19922;-40
2022/08/15 02:16:36;;;;;;;;;;;24.50;62.20;;;;;;6325291;27;19930;-40
2022/08/15 02:19:39;;;;;;;;;;;24.60;62.20;;;;;;6325136;27;19938;-43
2022/08/15 02:22:50;;;;;;;;;;;24.50;62.20;;;;;;6326931;27;19923;-42
2022/08/15 02:25:54;;;;;;;;;;;24.50;62.20;;;;;;6324365;27;19934;-41
2022/08/15 02:28:56;;;;;;;;;;;24.40;62.10;;;;;;6323534;27;20114;-43
2022/08/15 02:32:01;;;;;;;;;;;24.60;62.20;;;;;;6322389;27;19935;-41
2022/08/15 02:35:07;;;;;;;;;;;24.70;62.20;;;;;;6323188;27;20076;-40
2022/08/15 02:38:09;;;;;;;;;;;24.40;62.10;;;;;;6302277;27;19928;-41
2022/08/15 02:41:21;;;;;;;;;;;24.30;62.10;;;;;;6320091;27;19927;-42
2022/08/15 02:44:25;;;;;;;;;;;24.50;62.20;;;;;;6322648;27;20109;-40
2022/08/15 02:47:33;;;;;;;;;;;24.50;62.20;;;;;;6322923;27;20329;-42
2022/08/15 02:50:35;;;;;;;;;;;24.30;62.00;;;;;;6323469;27;20756;-41
2022/08/15 02:53:39;;;;;;;;;;;24.30;62.00;;;;;;6305454;27;20047;-42
2022/08/15 02:56:50;;;;;;;;;;;24.40;62.10;;;;;;6320673;27;19927;-42
2022/08/15 02:59:53;;;;;;;;;;;24.60;62.20;;;;;;6323418;27;20055;-40
2022/08/15 03:03:05;;;;;;;;;;;24.30;62.00;;;;;;6323509;27;20744;-40
2022/08/15 03:06:08;;;;;;;;;;;24.40;62.10;;;;;;6305271;27;20292;-41
2022/08/15 03:09:19;;;;;;;;;;;24.50;62.10;;;;;;6309298;27;20022;-43
2022/08/15 03:12:31;;;;;;;;;;;24.50;62.10;;;;;;6323037;27;20612;-41
2022/08/15 03:15:40;;;;;;;;;;;24.50;62.10;;;;;;6324982;27;19930;-40
2022/08/15 03:18:42;;;;;;;;;;;24.30;62.00;;;;;;6309991;27;20447;-40
2022/08/15 03:21:52;;;;;;;;;;;24.60;62.20;;;;;;6327957;27;20053;-41
2022/08/15 03:24:57;;;;;;;;;;;24.30;62.00;;;;;;6321997;27;19923;-39
2022/08/15 03:28:03;;;;;;;;;;;24.30;61.90;;;;;;6326048;27;21507;-40
2022/08/15 03:31:25;;;;;;;;;;;24.70;62.10;;;;;;6306915;27;19927;-40
2022/08/15 03:34:29;;;;;;;;;;;24.80;62.10;;;;;;6326597;27;20004;-39
2022/08/15 03:37:34;;;;;;;;;;;24.40;61.90;;;;;;6325431;27;20341;-42
2022/08/15 03:40:55;;;;;;;;;;;24.70;62.00;;;;;;6309177;27;19987;-41
2022/08/15 03:43:58;;;;;;;;;;;24.40;62.00;;;;;;6322802;27;20338;-39
2022/08/15 03:47:02;;;;;;;;;;;24.50;62.00;;;;;;6322524;27;20674;-41
2022/08/15 03:50:06;;;;;;;;;;;24.40;62.00;;;;;;6322714;27;20163;-40
2022/08/15 03:53:30;;;;;;;;;;;24.50;62.00;;;;;;6323706;27;20444;-42
2022/08/15 03:56:33;;;;;;;;;;;24.30;61.90;;;;;;6323846;27;20328;-40
2022/08/15 03:59:37;;;;;;;;;;;24.70;62.10;;;;;;6324315;27;19922;-40
2022/08/15 04:02:44;;;;;;;;;;;24.50;62.00;;;;;;6323856;27;19923;-40
2022/08/15 04:05:49;;;;;;;;;;;24.50;62.00;;;;;;6322845;27;20919;-39
2022/08/15 04:08:53;;;;;;;;;;;24.30;61.90;;;;;;6305525;27;20334;-42
2022/08/15 04:12:28;;;;;;;;;;;24.50;62.00;;;;;;6298187;27;20372;-40
2022/08/15 04:15:30;;;;;;;;;;;24.30;61.90;;;;;;6322643;27;19928;-39
2022/08/15 04:18:34;;;;;;;;;;;24.50;62.00;;;;;;6317442;27;20349;-39
2022/08/15 04:21:45;;;;;;;;;;;24.30;61.90;;;;;;6319373;27;20039;-40
2022/08/15 04:24:52;;;;;;;;;;;24.50;62.00;;;;;;6320470;27;19969;-40
2022/08/15 04:27:55;;;;;;;;;;;24.30;61.90;;;;;;6318088;27;19923;-40
2022/08/15 04:31:03;;;;;;;;;;;24.40;62.00;;;;;;6319160;27;20073;-38
2022/08/15 04:34:07;;;;;;;;;;;24.40;62.00;;;;;;6300223;27;20071;-41
2022/08/15 04:37:28;;;;;;;;;;;24.50;62.10;;;;;;6304459;27;19929;-39
2022/08/15 04:40:35;;;;;;;;;;;24.40;62.00;;;;;;6317127;27;19932;-40
2022/08/15 04:43:56;;;;;;;;;;;24.60;62.10;;;;;;6301139;27;19927;-40
2022/08/15 04:46:58;;;;;;;;;;;24.40;62.00;;;;;;6318800;27;19923;-42
2022/08/15 04:50:02;;;;;;;;;;;24.20;61.90;;;;;;6322404;27;19992;-39
2022/08/15 04:53:04;;;;;;;;;;;24.40;61.90;;;;;;6321210;27;20053;-40
2022/08/15 04:56:07;;;;;;;;;;;24.60;62.10;;;;;;6299251;27;20479;-42
2022/08/15 04:59:32;;;;;;;;;;;24.30;61.90;;;;;;6298238;27;20544;-43
2022/08/15 05:02:55;;;;;;;;;;;24.50;62.00;;;;;;6316045;27;19926;-42
2022/08/15 05:06:05;;;;;;;;;;;24.20;61.80;;;;;;6317515;27;20656;-40
2022/08/15 05:09:28;;;;;;;;;;;24.60;62.00;;;;;;6287070;27;20296;-41
2022/08/15 05:12:31;;;;;;;;;;;24.30;61.90;;;;;;6317863;27;19923;-42
2022/08/15 05:15:36;;;;;;;;;;;24.30;61.80;;;;;;6315362;27;19930;-41
2022/08/15 05:18:49;;;;;;;;;;;24.60;62.00;;;;;;6313857;27;20445;-41
2022/08/15 05:21:55;;;;;;;;;;;24.30;61.90;;;;;;6315525;27;20685;-41
2022/08/15 05:24:57;;;;;;;;;;;24.30;61.80;;;;;;6314008;27;19934;-41
2022/08/15 05:28:00;;;;;;;;;;;24.10;61.80;;;;;;6315216;27;20424;-40
2022/08/15 05:31:22;;;;;;;;;;;24.50;62.00;;;;;;6292776;27;20258;-39
2022/08/15 05:34:35;;;;;;;;;;;24.00;61.70;;;;;;6319155;27;20215;-40
2022/08/15 05:37:46;;;;;;;;;;;24.30;61.90;;;;;;6318746;27;20439;-40
2022/08/15 05:40:53;;;;;;;;;;;24.40;61.80;;;;;;6316389;27;20616;-39
2022/08/15 05:43:59;;;;;;;;;;;24.30;61.80;;;;;;6301048;27;20559;-40
2022/08/15 05:47:05;;;;;;;;;;;24.50;61.90;;;;;;6315315;27;20425;-42
2022/08/15 05:50:13;;;;;;;;;;;24.30;61.80;;;;;;6320823;27;20256;-39
2022/08/15 05:53:22;;;;;;;;;;;24.30;61.80;;;;;;6304322;27;19923;-40
2022/08/15 05:56:29;;;;;;;;;;;24.50;61.90;;;;;;6319790;27;20038;-41
2022/08/15 05:59:33;;;;;;;;;;;24.20;61.70;;;;;;6313437;27;19923;-41
2022/08/15 06:02:37;;;;;;;;;;;24.50;61.90;;;;;;6316930;27;20033;-40
2022/08/15 06:06:03;;;;;;;;;;;24.50;61.90;;;;;;6313830;27;19927;-41
2022/08/15 06:09:36;;;;;;;;;;;24.50;61.80;;;;;;6286153;27;20290;-39
2022/08/15 06:12:47;;;;;;;;;;;24.20;61.60;;;;;;6298443;27;19926;-41
2022/08/15 06:15:58;;;;;;;;;;;24.40;62.40;;;;;;6316862;27;20162;-39
2022/08/15 06:19:03;;;;;;;;;;;24.40;61.70;;;;;;6320379;27;19927;-40
2022/08/15 06:22:16;;;;;;;;;;;24.10;61.60;;;;;;6297900;27;20889;-39
2022/08/15 06:25:22;;;;;;;;;;;24.40;61.70;;;;;;6318787;27;19923;-39
2022/08/15 06:28:33;;;;;;;;;;;24.50;61.70;;;;;;6300908;27;19930;-40
2022/08/15 06:31:58;;;;;;;;;;;24.20;61.50;;;;;;6299388;27;20163;-40
2022/08/15 06:35:04;;;;;;;;;;;24.60;61.70;;;;;;6301000;27;19953;-41
2022/08/15 06:38:21;;;;;;;;;;;24.30;61.50;;;;;;6313675;27;19923;-39
2022/08/15 06:41:53;;;;;;;;;;;24.40;61.50;;;;;;6301629;27;20143;-39
2022/08/15 06:45:16;;;;;;;;;;;24.50;61.50;;;;;;6313838;27;19950;-39
2022/08/15 06:48:19;;;;;;;;;;;24.30;61.40;;;;;;6298753;27;19925;-40
2022/08/15 06:51:41;;;;;;;;;;;24.10;61.20;;;;;;6299128;27;19924;-42
2022/08/15 06:54:49;;;;;;;;;;;24.60;61.50;;;;;;6303033;27;20263;-39
2022/08/15 06:58:03;;;;;;;;;;;24.40;61.40;;;;;;6315620;27;19923;-40
2022/08/15 07:01:29;;;;;;;;;;;24.40;61.40;;;;;;6295466;27;20003;-39
2022/08/15 07:04:55;;;;;;;;;;;24.30;61.20;;;;;;6295349;27;20269;-40
2022/08/15 07:08:03;;;;;;;;;;;24.40;61.30;;;;;;6314513;27;19986;-42
2022/08/15 07:11:10;;;;;;;;;;;24.20;61.20;;;;;;6310980;27;20087;-39
2022/08/15 07:14:23;;;;;;;;;;;24.50;61.40;;;;;;6309766;27;20082;-39
2022/08/15 07:17:30;;;;;;;;;;;24.60;61.40;;;;;;6296344;27;20813;-39
2022/08/15 07:20:36;;;;;;;;;;;24.60;61.40;;;;;;6326740;27;19969;-39
2022/08/15 07:23:57;;;;;;;;;;;24.40;61.40;;;;;;6296612;27;20381;-41
2022/08/15 07:27:06;;;;;;;;;;;24.40;61.30;;;;;;6296751;27;20586;-40
2022/08/15 07:30:18;;;;;;;;;;;24.20;61.10;;;;;;6314058;27;20210;-40
2022/08/15 07:33:33;;;;;;;;;;;24.40;61.30;;;;;;6299246;27;19923;-39
2022/08/15 07:36:50;;;;;;;;;;;24.30;61.20;;;;;;6297341;27;20012;-43
2022/08/15 07:39:57;;;;;;;;;;;24.30;61.10;;;;;;6280365;27;20469;-40
2022/08/15 07:43:01;;;;;;;;;;;24.50;61.20;;;;;;6309513;27;20267;-41
2022/08/15 07:46:10;;;;;;;;;;;24.30;61.10;;;;;;6295051;27;20650;-40
2022/08/15 07:49:29;;;;;;;;;;;24.40;61.10;;;;;;6315074;27;20184;-38
2022/08/15 07:52:33;;;;;;;;;;;24.40;61.10;;;;;;6313445;27;19927;-38
2022/08/15 07:56:04;;;;;;;;;;;24.50;61.10;;;;;;6316338;27;19927;-39
2022/08/15 07:59:27;;;;;;;;;;;24.60;61.20;;;;;;6300303;27;19924;-40
2022/08/15 08:02:58;;;;;;;;;;;24.60;61.10;;;;;;6284883;27;19927;-40
2022/08/15 08:06:03;;;;;;;;;;;24.50;61.00;;;;;;6315222;27;20214;-39
2022/08/15 08:09:29;;;;;;;;;;;24.70;61.10;;;;;;6296226;27;20204;-39
2022/08/15 08:12:54;;;;;;;;;;;24.50;60.90;;;;;;6312074;27;20203;-40
2022/08/15 08:16:03;;;;;;;;;;;24.50;60.90;;;;;;6311802;27;20092;-39
2022/08/15 08:19:13;;;;;;;;;;;24.90;61.10;;;;;;6311228;27;20163;-40
2022/08/15 08:22:22;;;;;;;;;;;24.70;61.00;;;;;;6310848;27;20312;-40
2022/08/15 08:25:27;;;;;;;;;;;24.70;60.90;;;;;;6306952;27;20069;-39
2022/08/15 08:28:51;;;;;;;;;;;24.50;60.80;;;;;;6287096;27;20301;-39
2022/08/15 08:32:00;;;;;;;;;;;24.80;60.90;;;;;;6313039;27;21549;-39
2022/08/15 08:35:25;;;;;;;;;;;24.50;60.70;;;;;;6295090;27;19923;-39
2022/08/15 08:38:35;;;;;;;;;;;24.70;60.80;;;;;;6313723;27;19934;-42
2022/08/15 08:42:01;;;;;;;;;;;24.60;60.70;;;;;;6299452;27;20202;-40
2022/08/15 08:45:24;;;;;;;;;;;24.60;60.60;;;;;;6315731;27;20284;-42
2022/08/15 08:48:41;;;;;;;;;;;24.50;60.60;;;;;;6291317;27;19934;-40
2022/08/15 08:51:50;;;;;;;;;;;24.60;60.50;;;;;;6294678;27;20131;-41
2022/08/15 08:55:00;;;;;;;;;;;24.80;60.60;;;;;;6312298;27;20657;-39
2022/08/15 08:58:07;;;;;;;;;;;25.10;60.70;;;;;;6309086;27;19923;-40
2022/08/15 09:01:12;;;;;;;;;;;24.70;60.50;;;;;;6309947;27;20010;-41
2022/08/15 09:04:17;;;;;;;;;;;24.90;60.60;;;;;;6305159;27;19950;-41
2022/08/15 09:07:22;;;;;;;;;;;24.90;60.60;;;;;;6305819;27;20098;-42
2022/08/15 09:10:25;;;;;;;;;;;24.50;60.30;;;;;;6306615;27;19985;-41
2022/08/15 09:13:34;;;;;;;;;;;25.00;60.50;;;;;;6288650;27;19922;-40
2022/08/15 09:16:40;;;;;;;;;;;25.10;61.20;;;;;;6312421;27;20065;-42
2022/08/15 09:19:45;;;;;;;;;;;24.80;60.30;;;;;;6318392;27;19923;-42
2022/08/15 09:22:47;;;;;;;;;;;25.00;60.40;;;;;;6313699;27;19993;-41
2022/08/15 09:25:51;;;;;;;;;;;24.70;60.20;;;;;;6313934;27;19919;-41
2022/08/15 09:29:02;;;;;;;;;;;24.60;60.10;;;;;;6319975;27;19931;-40
2022/08/15 09:32:18;;;;;;;;;;;24.80;60.20;;;;;;6302118;27;19933;-39
2022/08/15 09:35:43;;;;;;;;;;;24.70;60.10;;;;;;6290084;27;20252;-39
2022/08/15 09:38:52;;;;;;;;;;;25.10;60.20;;;;;;6311907;27;20869;-39
2022/08/15 09:41:58;;;;;;;;;;;24.90;60.00;;;;;;6314210;27;19978;-43
2022/08/15 09:45:09;;;;;;;;;;;24.70;59.90;;;;;;6308894;27;19956;-39
2022/08/15 09:48:24;;;;;;;;;;;24.90;60.00;;;;;;6307210;27;19999;-42
2022/08/15 09:51:42;;;;;;;;;;;24.90;60.00;;;;;;6320010;27;19919;-40
2022/08/15 09:54:45;;;;;;;;;;;24.80;59.90;;;;;;6319267;27;20790;-39
2022/08/15 09:57:54;;;;;;;;;;;25.00;60.00;;;;;;6299884;27;19927;-41
2022/08/15 10:01:03;;;;;;;;;;;25.10;60.10;;;;;;6286066;27;20107;-43
2022/08/15 10:04:07;;;;;;;;;;;25.40;60.30;;;;;;6290561;27;19927;-39
2022/08/15 10:07:31;;;;;;;;;;;24.70;59.80;;;;;;6321973;27;20034;-44
2022/08/15 10:10:48;;;;;;;;;;;25.00;60.00;;;;;;6321518;27;20802;-40
2022/08/15 10:14:01;;;;;;;;;;;24.70;59.80;;;;;;6287306;27;19955;-40
2022/08/15 10:17:25;;;;;;;;;;;24.80;59.80;;;;;;6295466;27;20033;-42
2022/08/15 10:20:42;;;;;;;;;;;24.80;59.80;;;;;;6302152;27;20907;-40
2022/08/15 10:23:48;;;;;;;;;;;24.80;59.80;;;;;;6319675;27;19919;-40
2022/08/15 10:27:09;;;;;;;;;;;25.00;59.80;;;;;;6320835;27;20781;-41
2022/08/15 10:30:18;;;;;;;;;;;25.00;59.80;;;;;;6304662;27;19919;-41
2022/08/15 10:33:42;;;;;;;;;;;25.00;59.80;;;;;;6295819;27;19974;-41
2022/08/15 10:37:04;;;;;;;;;;;25.10;59.90;;;;;;6302473;27;20801;-39
2022/08/15 10:40:22;;;;;;;;;;;25.10;59.80;;;;;;6303055;27;20951;-42
2022/08/15 10:43:40;;;;;;;;;;;25.00;59.70;;;;;;6324319;27;19927;-39
2022/08/15 10:47:03;;;;;;;;;;;25.30;60.00;;;;;;6322222;27;19927;-39
2022/08/15 10:50:12;;;;;;;;;;;25.20;59.80;;;;;;6312645;27;21310;-40
2022/08/15 10:53:33;;;;;;;;;;;25.20;59.70;;;;;;6312122;27;19938;-41
2022/08/15 10:56:54;;;;;;;;;;;25.10;59.60;;;;;;6311435;27;20228;-40
2022/08/15 11:00:14;;;;;;;;;;;25.10;59.60;;;;;;6316145;27;19923;-40
2022/08/15 11:03:40;;;;;;;;;;;24.70;59.30;;;;;;6280545;27;19975;-38
2022/08/15 11:07:16;;;;;;;;;;;25.00;59.50;;;;;;6295073;27;19927;-41
2022/08/15 11:10:19;;;;;;;;;;;25.30;59.60;;;;;;6314698;27;19923;-43
2022/08/15 11:13:23;;;;;;;;;;;25.20;59.60;;;;;;6313482;27;20329;-41
2022/08/15 11:16:28;;;;;;;;;;;25.00;59.40;;;;;;6312327;27;19999;-41
2022/08/15 11:19:42;;;;;;;;;;;25.20;59.50;;;;;;6310017;27;20106;-42
2022/08/15 11:23:04;;;;;;;;;;;25.30;59.60;;;;;;6298793;27;20099;-39
2022/08/15 11:26:09;;;;;;;;;;;25.30;59.50;;;;;;6307792;27;19927;-40
2022/08/15 11:29:24;;;;;;;;;;;25.30;59.50;;;;;;6295455;27;20182;-40
2022/08/15 11:32:28;;;;;;;;;;;25.30;59.50;;;;;;6312547;27;19993;-42
2022/08/15 11:35:32;;;;;;;;;;;25.20;59.40;;;;;;6297034;27;19978;-42
2022/08/15 11:38:42;;;;;;;;;;;25.50;59.60;;;;;;6310443;27;19999;-39
2022/08/15 11:42:04;;;;;;;;;;;25.20;59.30;;;;;;6284456;27;19930;-43
2022/08/15 11:45:10;;;;;;;;;;;25.30;59.40;;;;;;6307536;27;20043;-40
2022/08/15 11:48:19;;;;;;;;;;;25.30;59.40;;;;;;6305536;27;20037;-41
2022/08/15 11:51:23;;;;;;;;;;;25.50;59.50;;;;;;6283074;27;20301;-40
2022/08/15 11:54:33;;;;;;;;;;;25.30;60.00;;;;;;6311016;27;19953;-43
2022/08/15 11:57:39;;;;;;;;;;;25.50;59.50;;;;;;6303888;27;20332;-43
2022/08/15 12:00:46;;;;;;;;;;;25.50;59.50;;;;;;6304895;27;19924;-39
2022/08/15 12:03:57;;;;;;;;;;;25.30;59.40;;;;;;6284661;27;19930;-40
2022/08/15 12:07:23;;;;;;;;;;;25.60;59.60;;;;;;6289223;27;20694;-39
2022/08/15 12:10:28;;;;;;;;;;;25.30;59.30;;;;;;6307103;27;20270;-41
2022/08/15 12:13:54;;;;;;;;;;;25.30;59.30;;;;;;6279111;27;20169;-40
2022/08/15 12:16:57;;;;;;;;;;;25.00;59.10;;;;;;6287674;27;20004;-40
2022/08/15 12:20:04;;;;;;;;;;;25.50;59.50;;;;;;6288787;27;20141;-39
2022/08/15 12:23:35;;;;;;;;;;;25.30;59.30;;;;;;6294196;27;20351;-40
2022/08/15 12:26:36;;;;;;;;;;;25.70;59.60;;;;;;6311803;27;20206;-41
2022/08/15 12:29:50;;;;;;;;;;;25.50;59.50;;;;;;6307847;27;20377;-41
2022/08/15 12:32:52;;;;;;;;;;;25.40;59.40;;;;;;6306290;27;20125;-40
2022/08/15 12:36:03;;;;;;;;;;;25.40;59.30;;;;;;6313923;27;19986;-41
2022/08/15 12:39:05;;;;;;;;;;;25.50;59.40;;;;;;6310867;27;20204;-39
2022/08/15 12:42:12;;;;;;;;;;;25.50;59.50;;;;;;6312542;27;20184;-41
2022/08/15 12:45:33;;;;;;;;;;;25.50;59.40;;;;;;6277977;27;19926;-41
2022/08/15 12:48:46;;;;;;;;;;;25.20;59.20;;;;;;6289942;27;19927;-40
2022/08/15 12:51:59;;;;;;;;;;;25.40;59.30;;;;;;6301641;27;19938;-41
2022/08/15 12:55:01;;;;;;;;;;;25.50;59.40;;;;;;6305825;27;20629;-40
2022/08/15 12:58:02;;;;;;;;;;;25.20;59.20;;;;;;6308922;27;20018;-40
2022/08/15 13:01:08;;;;;;;;;;;25.40;59.30;;;;;;6308031;27;20411;-42
2022/08/15 13:04:26;;;;;;;;;;;25.40;59.30;;;;;;6291647;27;20005;-39
2022/08/15 13:07:47;;;;;;;;;;;25.50;59.40;;;;;;6276679;27;20154;-40
2022/08/15 13:11:10;;;;;;;;;;;25.50;59.30;;;;;;6291817;27;19923;-42
2022/08/15 13:14:18;;;;;;;;;;;25.40;59.30;;;;;;6304847;27;19927;-40
2022/08/15 13:17:20;;;;;;;;;;;25.50;59.40;;;;;;6295482;27;19933;-40
2022/08/15 13:24:00;;;;;;;;;;;25.50;59.40;;;;;;6300979;27;20143;-41
2022/08/15 13:27:19;;;;;;;;;;;25.70;59.50;;;;;;6300235;27;20374;-40
2022/08/15 13:30:21;;;;;;;;;;;25.50;59.50;;;;;;6308320;27;20736;-39
2022/08/15 13:33:23;;;;;;;;;;;25.60;59.50;;;;;;6303080;27;20162;-40
2022/08/15 13:36:28;;;;;;;;;;;25.40;59.40;;;;;;6300382;27;19953;-41
2022/08/15 13:39:34;;;;;;;;;;;25.40;59.50;;;;;;6308002;27;20025;-39
2022/08/15 13:42:59;;;;;;;;;;;25.20;59.40;;;;;;6271369;27;20761;-41
2022/08/15 13:46:05;;;;;;;;;;;25.30;59.40;;;;;;6287650;27;20194;-39
2022/08/15 13:49:29;;;;;;;;;;;25.20;59.40;;;;;;6287124;27;20055;-42
2022/08/15 13:52:32;;;;;;;;;;;25.50;59.60;;;;;;6306510;27;19927;-39
2022/08/15 13:55:53;;;;;;;;;;;25.50;59.60;;;;;;6294929;27;19927;-40
2022/08/15 13:58:55;;;;;;;;;;;25.40;59.50;;;;;;6309552;27;19931;-40
2022/08/15 14:02:01;;;;;;;;;;;25.40;59.50;;;;;;6291113;27;20003;-39
2022/08/15 14:05:23;;;;;;;;;;;25.40;59.50;;;;;;6279116;27;20585;-40
2022/08/15 14:08:24;;;;;;;;;;;25.60;59.60;;;;;;6311906;27;19927;-40
2022/08/15 14:11:45;;;;;;;;;;;25.10;59.30;;;;;;6296329;27;20330;-43
2022/08/15 14:14:59;;;;;;;;;;;25.30;59.40;;;;;;6307343;27;20903;-41
2022/08/15 14:18:08;;;;;;;;;;;25.50;59.60;;;;;;6310162;27;20131;-41
2022/08/15 14:21:29;;;;;;;;;;;25.30;59.40;;;;;;6292841;27;20003;-39
2022/08/15 14:24:31;;;;;;;;;;;25.30;59.40;;;;;;6312761;27;19931;-41
2022/08/15 14:27:56;;;;;;;;;;;25.50;59.50;;;;;;6293440;27;19923;-39
2022/08/15 14:30:58;;;;;;;;;;;25.40;59.40;;;;;;6306912;27;20122;-40
2022/08/15 14:34:19;;;;;;;;;;;25.40;59.40;;;;;;6295660;27;20019;-40
2022/08/15 14:37:42;;;;;;;;;;;25.10;59.20;;;;;;6295005;27;20015;-41
2022/08/15 14:40:48;;;;;;;;;;;25.40;59.30;;;;;;6305531;27;20435;-41
2022/08/15 14:43:52;;;;;;;;;;;25.30;59.30;;;;;;6308327;27;19931;-39
2022/08/15 14:46:55;;;;;;;;;;;25.40;59.30;;;;;;6308586;27;20049;-41
2022/08/15 14:49:56;;;;;;;;;;;25.50;59.40;;;;;;6302076;27;20223;-42
2022/08/15 14:53:22;;;;;;;;;;;25.60;59.40;;;;;;6306666;27;20353;-41
2022/08/15 14:56:24;;;;;;;;;;;25.60;59.40;;;;;;6308871;27;19988;-40
2022/08/15 14:59:33;;;;;;;;;;;25.30;59.20;;;;;;6303227;27;20065;-39
2022/08/15 15:02:55;;;;;;;;;;;25.70;59.50;;;;;;6278191;27;20227;-39
2022/08/15 15:06:03;;;;;;;;;;;25.40;59.30;;;;;;6312102;27;19934;-40
2022/08/15 15:09:25;;;;;;;;;;;25.40;59.30;;;;;;6279570;27;20774;-41
2022/08/15 15:12:27;;;;;;;;;;;25.50;59.30;;;;;;6312399;27;19930;-40
2022/08/15 15:15:30;;;;;;;;;;;25.50;59.40;;;;;;6320170;27;19927;-41
2022/08/15 15:18:44;;;;;;;;;;;25.30;59.20;;;;;;6295249;27;20031;-41
2022/08/15 15:21:59;;;;;;;;;;;25.50;59.30;;;;;;6310835;27;19934;-41
2022/08/15 15:25:01;;;;;;;;;;;25.40;59.20;;;;;;6312439;27;19927;-41
2022/08/15 15:28:02;;;;;;;;;;;25.30;59.20;;;;;;6319334;27;20013;-41
2022/08/15 15:31:24;;;;;;;;;;;25.40;59.20;;;;;;6305749;27;20023;-41
2022/08/15 15:34:30;;;;;;;;;;;25.40;59.20;;;;;;6318793;27;19965;-41
2022/08/15 15:37:38;;;;;;;;;;;25.30;59.20;;;;;;6318769;27;20801;-39
2022/08/15 15:40:39;;;;;;;;;;;25.50;59.30;;;;;;6320256;27;19927;-40
2022/08/15 15:43:41;;;;;;;;;;;25.40;59.20;;;;;;6308431;27;19926;-41
2022/08/15 15:46:45;;;;;;;;;;;25.20;59.10;;;;;;6310609;27;20061;-39
2022/08/15 15:49:47;;;;;;;;;;;25.30;59.20;;;;;;6306688;27;19985;-40
2022/08/15 15:52:52;;;;;;;;;;;25.40;59.20;;;;;;6302542;27;20149;-40
2022/08/15 15:55:58;;;;;;;;;;;25.50;59.30;;;;;;6304907;27;20346;-43
2022/08/15 15:58:59;;;;;;;;;;;25.30;59.20;;;;;;6304306;27;20706;-41
2022/08/15 16:02:19;;;;;;;;;;;25.50;59.30;;;;;;6301352;27;20378;-42
2022/08/15 16:05:42;;;;;;;;;;;25.40;59.20;;;;;;6275010;27;20190;-40
2022/08/15 16:09:04;;;;;;;;;;;25.50;59.30;;;;;;6286373;27;20297;-40
2022/08/15 16:12:11;;;;;;;;;;;25.50;59.30;;;;;;6285407;27;20492;-39
2022/08/15 16:15:35;;;;;;;;;;;25.50;59.30;;;;;;6276427;27;19934;-39
2022/08/15 16:18:48;;;;;;;;;;;25.50;59.40;;;;;;6303243;27;19958;-40
2022/08/15 16:21:57;;;;;;;;;;;25.50;59.30;;;;;;6305249;27;20057;-41
2022/08/15 16:25:05;;;;;;;;;;;25.30;59.20;;;;;;6286797;27;20383;-40
2022/08/15 16:28:11;;;;;;;;;;;25.50;59.30;;;;;;6304680;27;19923;-41
2022/08/15 16:31:17;;;;;;;;;;;25.40;59.20;;;;;;6302144;27;20196;-40
2022/08/15 16:34:22;;;;;;;;;;;25.40;59.30;;;;;;6303041;27;20260;-39
2022/08/15 16:37:32;;;;;;;;;;;25.40;59.20;;;;;;6298271;27;20609;-40
2022/08/15 16:40:47;;;;;;;;;;;25.40;59.20;;;;;;6303346;27;20098;-41
2022/08/15 16:44:04;;;;;;;;;;;25.30;59.20;;;;;;6304207;27;19933;-40
2022/08/15 16:47:14;;;;;;;;;;;25.20;59.10;;;;;;6303109;27;20565;-40
2022/08/15 16:50:30;;;;;;;;;;;25.40;59.20;;;;;;6281691;27;20793;-42
2022/08/15 16:53:36;;;;;;;;;;;25.40;59.30;;;;;;6309047;27;20085;-40
2022/08/15 16:57:01;;;;;;;;;;;25.20;59.10;;;;;;6290757;27;20523;-41
2022/08/15 17:00:08;;;;;;;;;;;25.30;59.20;;;;;;6287012;27;20124;-41
2022/08/15 17:03:21;;;;;;;;;;;25.20;59.20;;;;;;6305257;27;21715;-39
2022/08/15 17:06:34;;;;;;;;;;;25.40;59.30;;;;;;6306605;27;19933;-41
2022/08/15 17:09:42;;;;;;;;;;;25.30;59.30;;;;;;6286004;27;20308;-40
2022/08/15 17:13:06;;;;;;;;;;;25.30;59.30;;;;;;6310615;27;19931;-39
2022/08/15 17:16:14;;;;;;;;;;;25.10;59.20;;;;;;6310570;27;20296;-43
2022/08/15 17:19:20;;;;;;;;;;;25.20;59.20;;;;;;6312627;27;20061;-40
2022/08/15 17:22:27;;;;;;;;;;;25.30;59.40;;;;;;6313396;27;20374;-39
2022/08/15 17:25:40;;;;;;;;;;;25.20;59.30;;;;;;6306297;27;19931;-39
2022/08/15 17:28:45;;;;;;;;;;;25.30;59.50;;;;;;6303267;27;20140;-42
2022/08/15 17:31:48;;;;;;;;;;;25.40;59.60;;;;;;6286498;27;20419;-40
2022/08/15 17:34:55;;;;;;;;;;;25.10;59.50;;;;;;6309161;27;20280;-40
2022/08/15 17:38:00;;;;;;;;;;;25.20;59.60;;;;;;6309210;27;19923;-41
2022/08/15 17:41:05;;;;;;;;;;;25.20;59.60;;;;;;6308539;27;20754;-41
2022/08/15 17:44:10;;;;;;;;;;;25.30;59.70;;;;;;6310147;27;20309;-41
2022/08/15 17:47:33;;;;;;;;;;;24.90;59.50;;;;;;6295467;27;20381;-42
2022/08/15 17:50:36;;;;;;;;;;;25.10;59.70;;;;;;6290919;27;20273;-40
2022/08/15 17:54:00;;;;;;;;;;;25.00;59.60;;;;;;6294284;27;19923;-40
2022/08/15 17:57:09;;;;;;;;;;;25.10;59.70;;;;;;6308951;27;20080;-40
2022/08/15 18:00:14;;;;;;;;;;;24.90;59.60;;;;;;6313917;27;19923;-39
2022/08/15 18:03:33;;;;;;;;;;;25.20;59.80;;;;;;6295886;27;19934;-39
2022/08/15 18:06:39;;;;;;;;;;;25.10;59.80;;;;;;6314521;27;20021;-43
2022/08/15 18:09:41;;;;;;;;;;;25.10;59.80;;;;;;6313030;27;19995;-39
2022/08/15 18:13:03;;;;;;;;;;;25.30;59.90;;;;;;6296838;27;20140;-40
2022/08/15 18:16:18;;;;;;;;;;;25.00;59.70;;;;;;6325278;27;20046;-41
2022/08/15 18:19:26;;;;;;;;;;;24.80;59.60;;;;;;6326017;27;19962;-39
2022/08/15 18:22:28;;;;;;;;;;;25.00;59.80;;;;;;6325858;27;20037;-40
2022/08/15 18:25:30;;;;;;;;;;;25.10;59.80;;;;;;6325592;27;20703;-40
2022/08/15 18:28:55;;;;;;;;;;;24.90;59.70;;;;;;6324029;27;20799;-41
2022/08/15 18:32:02;;;;;;;;;;;24.80;59.60;;;;;;6294051;27;20003;-40
2022/08/15 18:35:07;;;;;;;;;;;24.90;59.70;;;;;;6310089;27;20244;-42